Terminal Aerodrome Forecast
Issued by NWS

Home | Current Version | Previous Version | Text Only | Print | Product List | Glossary On
Versions: 1 2 3 4 5 6 7 8 9 10 11 12
000
FTUS41 KLWX 282322
TAFMTN
TAF
KMTN 282322Z 2900/2924 18008KT P6SM FEW060
     FM290600 18004KT P6SM FEW250
     FM290900 VRB03KT 5SM BR SCT250
     FM291000 VRB03KT 3SM BR SCT250
     FM291500 16005KT P6SM BKN150
     FM292200 16006KT 5SM BR OVC050
      AMD NOT SKED 2902/2912=

USA.gov is the U.S. government's official web portal to all federal, state and local government web resources and services.